Time;durP1;ratioP1;P1;durP2;ratioP2;P2;SDS_P1;SDS_P2;PMS_P1;PMS_P2;Temp;Humidity;BMP_temperature;BMP_pressure;BME280_temperature;BME280_humidity;BME280_pressure;Samples;Min_cycle;Max_cycle;Signal;HPM_P1;HPM_P2
2021/12/06 00:00:56;;;;;;;7.00;1.13;;;25.20;94.00;;;;;;5130818;27;20107;-75
2021/12/06 00:03:38;;;;;;;4.53;0.80;;;25.40;94.40;;;;;;5124603;27;20019;-74
2021/12/06 00:06:06;;;;;;;4.75;1.00;;;25.70;93.00;;;;;;5130573;27;22655;-75
2021/12/06 00:08:34;;;;;;;7.28;1.27;;;25.30;93.20;;;;;;5131608;27;20086;-77
2021/12/06 00:11:07;;;;;;;2.78;0.70;;;25.00;92.70;;;;;;5130037;27;20031;-75
2021/12/06 00:13:40;;;;;;;5.80;1.25;;;24.90;93.80;;;;;;5131600;27;20099;-76
2021/12/06 00:16:14;;;;;;;3.88;0.63;;;25.00;93.50;;;;;;5111603;27;20031;-74
2021/12/06 00:18:42;;;;;;;6.97;1.40;;;25.20;93.50;;;;;;5127540;27;20191;-77
2021/12/06 00:21:09;;;;;;;5.43;1.10;;;25.40;92.80;;;;;;5125471;27;20104;-79
2021/12/06 00:23:37;;;;;;;5.43;1.20;;;25.80;93.10;;;;;;5118468;27;20517;-77
2021/12/06 00:26:06;;;;;;;4.32;0.80;;;26.20;93.10;;;;;;5125213;27;20057;-76
2021/12/06 00:28:34;;;;;;;2.63;0.93;;;26.40;91.60;;;;;;5130682;27;20526;-78
2021/12/06 00:31:02;;;;;;;4.60;0.88;;;26.30;91.60;;;;;;5129416;27;20037;-77
2021/12/06 00:33:30;;;;;;;3.97;0.88;;;26.00;91.80;;;;;;5118978;27;20027;-75
2021/12/06 00:36:03;;;;;;;6.50;1.65;;;25.80;91.20;;;;;;5128336;27;20035;-74
2021/12/06 00:38:34;;;;;;;2.88;0.80;;;25.20;92.40;;;;;;5128367;27;20073;-76
2021/12/06 00:41:02;;;;;;;6.63;1.25;;;24.70;92.80;;;;;;5128807;27;20034;-78
2021/12/06 00:43:30;;;;;;;2.28;1.20;;;24.50;93.60;;;;;;5128934;27;20404;-75
2021/12/06 00:45:58;;;;;;;6.60;0.88;;;24.40;93.60;;;;;;5125074;27;20023;-77
2021/12/06 00:48:25;;;;;;;3.00;0.85;;;24.20;93.80;;;;;;5120473;27;20565;-76
2021/12/06 00:50:53;;;;;;;5.90;1.00;;;23.90;94.70;;;;;;5125666;27;20035;-74
2021/12/06 00:53:20;;;;;;;2.58;0.95;;;23.90;94.40;;;;;;5128519;27;20029;-77
2021/12/06 00:55:48;;;;;;;2.63;0.90;;;23.70;94.80;;;;;;5125510;27;20505;-75
2021/12/06 00:58:15;;;;;;;4.65;1.23;;;23.50;95.10;;;;;;5130320;27;20367;-76
2021/12/06 01:00:46;;;;;;;2.35;0.73;;;23.60;94.80;;;;;;5110443;27;20488;-74
2021/12/06 01:03:29;;;;;;;4.68;0.93;;;23.50;94.60;;;;;;5130786;27;20636;-76
2021/12/06 01:05:56;;;;;;;2.20;0.75;;;23.40;94.00;;;;;;5122331;27;20038;-74
2021/12/06 01:08:25;;;;;;;2.50;0.85;;;23.30;94.80;;;;;;5129291;27;20019;-74
2021/12/06 01:10:53;;;;;;;3.90;0.70;;;23.30;94.40;;;;;;5127803;27;20552;-74
2021/12/06 01:13:21;;;;;;;2.80;0.73;;;23.30;94.60;;;;;;5130608;28;20054;-77
2021/12/06 01:15:49;;;;;;;2.00;0.40;;;23.50;94.80;;;;;;5130000;28;20026;-75
2021/12/06 01:18:19;;;;;;;5.15;1.00;;;23.70;94.70;;;;;;5130201;28;20033;-74
2021/12/06 01:20:53;;;;;;;4.65;0.63;;;23.80;94.80;;;;;;5129241;28;20108;-74
2021/12/06 01:23:26;;;;;;;4.85;0.90;;;24.00;94.60;;;;;;5130747;28;20048;-74
2021/12/06 01:31:38;;;;;;;3.28;0.60;;;23.60;93.40;;;;;;5089418;28;20490;-76
2021/12/06 01:39:07;;;;;;;7.53;1.65;;;23.30;94.10;;;;;;5124674;28;20031;-75
2021/12/06 01:39:38;;;;;;;3.88;1.10;;;22.90;94.80;;;;;;5113332;28;20084;-75
2021/12/06 01:42:10;;;;;;;4.25;0.85;;;22.90;95.30;;;;;;5120631;28;20054;-77
2021/12/06 01:44:48;;;;;;;3.60;0.52;;;23.10;95.60;;;;;;5119102;27;20107;-77
2021/12/06 01:47:19;;;;;;;3.42;0.82;;;23.20;95.50;;;;;;5134452;27;20035;-77
2021/12/06 01:49:57;;;;;;;2.08;0.80;;;23.30;95.40;;;;;;5133646;27;20090;-75
2021/12/06 01:52:29;;;;;;;2.80;0.50;;;23.40;95.20;;;;;;5121969;27;20069;-76
2021/12/06 01:54:59;;;;;;;5.45;0.73;;;23.50;95.20;;;;;;5125036;27;20119;-78
2021/12/06 01:57:29;;;;;;;5.85;0.73;;;23.60;95.20;;;;;;5104744;27;20031;-76
2021/12/06 01:59:57;;;;;;;4.28;1.25;;;23.40;95.10;;;;;;5130609;27;20019;-75
2021/12/06 02:02:27;;;;;;;2.15;0.60;;;23.30;95.10;;;;;;5130164;27;20584;-76
2021/12/06 02:04:55;;;;;;;4.28;0.85;;;23.30;95.40;;;;;;5131415;27;20038;-77
2021/12/06 02:07:24;;;;;;;2.00;0.63;;;23.30;95.40;;;;;;5132783;27;20451;-75
2021/12/06 02:09:55;;;;;;;6.07;0.70;;;23.30;95.30;;;;;;5110510;27;20023;-77
2021/12/06 02:12:24;;;;;;;2.42;0.30;;;23.30;96.10;;;;;;5132329;27;20035;-76
2021/12/06 02:15:04;;;;;;;5.30;0.60;;;23.20;95.50;;;;;;5113186;27;20023;-78
2021/12/06 02:17:38;;;;;;;1.52;0.93;;;23.20;95.50;;;;;;5132368;27;20474;-77
2021/12/06 02:20:25;;;;;;;2.50;0.47;;;23.20;96.00;;;;;;5130898;27;20688;-77
2021/12/06 02:22:53;;;;;;;2.53;0.50;;;23.30;95.90;;;;;;5132220;27;20035;-76
2021/12/06 02:25:21;;;;;;;2.35;0.68;;;23.40;95.90;;;;;;5130571;27;20470;-75
2021/12/06 02:27:52;;;;;;;4.10;0.60;;;23.50;95.60;;;;;;5129715;27;20045;-75
2021/12/06 02:30:20;;;;;;;4.55;1.27;;;23.30;95.20;;;;;;5129416;27;20478;-78
2021/12/06 02:32:49;;;;;;;4.05;0.45;;;23.20;95.10;;;;;;5125137;27;20031;-76
2021/12/06 02:35:20;;;;;;;4.03;0.38;;;23.20;95.40;;;;;;5126336;27;20130;-76
2021/12/06 02:37:48;;;;;;;1.30;0.50;;;22.90;95.40;;;;;;5124060;27;20050;-76
2021/12/06 02:40:24;;;;;;;2.22;0.60;;;22.90;95.70;;;;;;5132206;27;20110;-75
2021/12/06 02:42:52;;;;;;;3.88;0.50;;;22.80;96.00;;;;;;5126029;27;20045;-74
2021/12/06 02:45:22;;;;;;;2.13;0.40;;;22.60;96.10;;;;;;5131310;27;20031;-76
2021/12/06 02:47:53;;;;;;;6.18;1.13;;;22.60;95.70;;;;;;5130893;27;20080;-76
2021/12/06 02:50:24;;;;;;;4.05;0.55;;;22.50;95.80;;;;;;5128272;27;20019;-77
2021/12/06 02:52:54;;;;;;;5.18;0.82;;;22.40;96.30;;;;;;5126327;27;20020;-76
2021/12/06 02:57:56;;;;;;;7.80;1.63;;;22.40;96.30;;;;;;5130110;27;20023;-75
2021/12/06 03:00:25;;;;;;;2.63;0.55;;;22.40;96.50;;;;;;5126730;27;20031;-74
2021/12/06 03:02:53;;;;;;;5.03;0.70;;;22.40;96.70;;;;;;5122253;27;20039;-74
2021/12/06 03:05:21;;;;;;;4.78;1.33;;;22.40;96.50;;;;;;5131456;27;20023;-74
2021/12/06 03:07:52;;;;;;;3.83;0.98;;;22.40;96.10;;;;;;5132866;27;20104;-75
2021/12/06 03:10:20;;;;;;;2.70;0.50;;;22.40;96.60;;;;;;5120725;27;20023;-74
2021/12/06 03:12:47;;;;;;;4.72;0.90;;;22.40;96.40;;;;;;5132704;27;20015;-74
2021/12/06 03:15:16;;;;;;;1.88;0.77;;;22.50;96.20;;;;;;5097707;27;20109;-74
2021/12/06 03:17:45;;;;;;;3.97;0.80;;;22.50;96.30;;;;;;5113968;27;20377;-74
2021/12/06 03:20:14;;;;;;;6.53;1.23;;;22.50;96.40;;;;;;5128988;27;20058;-77
2021/12/06 03:22:43;;;;;;;3.85;0.52;;;22.50;96.00;;;;;;5125887;27;20461;-75
2021/12/06 03:25:13;;;;;;;2.47;0.85;;;22.40;96.20;;;;;;5127046;27;20031;-78
2021/12/06 03:27:40;;;;;;;1.77;0.65;;;22.30;96.30;;;;;;5131836;27;20027;-78
2021/12/06 03:30:10;;;;;;;5.93;0.50;;;22.20;96.50;;;;;;5127311;27;20106;-75
2021/12/06 03:32:38;;;;;;;2.80;0.80;;;22.10;96.70;;;;;;5127555;27;20122;-74
2021/12/06 03:35:06;;;;;;;1.73;0.43;;;22.00;97.00;;;;;;5129265;27;20666;-73
2021/12/06 03:37:33;;;;;;;4.47;0.80;;;21.90;97.10;;;;;;5130661;27;20045;-74
2021/12/06 03:40:01;;;;;;;5.05;0.65;;;21.90;97.40;;;;;;5128040;27;20023;-74
2021/12/06 03:42:28;;;;;;;2.53;0.50;;;21.90;97.80;;;;;;5129041;27;20042;-74
2021/12/06 03:44:55;;;;;;;3.67;0.70;;;21.90;97.40;;;;;;5131046;27;20076;-74
2021/12/06 03:47:27;;;;;;;3.45;0.95;;;22.00;97.50;;;;;;5128910;27;20031;-75
2021/12/06 03:49:55;;;;;;;3.72;0.65;;;22.00;97.90;;;;;;5129898;27;20038;-74
2021/12/06 03:52:23;;;;;;;3.83;0.60;;;22.10;97.60;;;;;;5111237;27;20058;-74
2021/12/06 03:54:51;;;;;;;2.95;0.63;;;22.20;97.30;;;;;;5108728;27;20027;-75
2021/12/06 03:57:20;;;;;;;4.80;1.25;;;22.30;97.00;;;;;;5130012;27;20106;-76
2021/12/06 03:59:48;;;;;;;4.13;0.88;;;22.40;97.00;;;;;;5129806;27;20027;-74
2021/12/06 04:02:18;;;;;;;9.18;1.35;;;22.50;97.00;;;;;;5130060;27;20062;-74
2021/12/06 04:04:45;;;;;;;3.70;0.40;;;22.60;96.60;;;;;;5128886;27;20031;-74
2021/12/06 04:07:13;;;;;;;1.88;0.43;;;22.70;96.90;;;;;;5110180;27;20031;-76
2021/12/06 04:09:42;;;;;;;2.58;0.50;;;22.70;97.10;;;;;;5131146;27;20038;-76
2021/12/06 04:12:10;;;;;;;5.65;0.77;;;22.60;96.30;;;;;;5108075;27;20027;-74
2021/12/06 04:14:39;;;;;;;3.28;1.45;;;22.50;96.30;;;;;;5129220;27;20027;-74
2021/12/06 04:17:07;;;;;;;4.57;0.50;;;22.40;97.00;;;;;;5126118;27;20123;-76
2021/12/06 04:19:34;;;;;;;8.30;0.98;;;22.40;97.60;;;;;;5130809;27;20031;-75
2021/12/06 04:22:03;;;;;;;4.60;0.73;;;22.40;97.30;;;;;;5127056;27;20067;-75
2021/12/06 04:24:31;;;;;;;3.75;0.75;;;22.40;96.70;;;;;;5130088;27;20386;-74
2021/12/06 04:27:00;;;;;;;1.98;0.50;;;22.50;97.00;;;;;;5129040;27;20027;-76
2021/12/06 04:29:28;;;;;;;4.50;0.57;;;22.50;97.10;;;;;;5120643;27;20027;-77
2021/12/06 04:31:56;;;;;;;7.85;0.88;;;22.50;96.90;;;;;;5130347;27;20102;-76
2021/12/06 04:34:23;;;;;;;6.93;0.50;;;22.50;96.70;;;;;;5119297;27;20042;-74
2021/12/06 04:36:51;;;;;;;3.55;0.65;;;22.40;97.00;;;;;;5128931;27;20042;-75
2021/12/06 04:39:20;;;;;;;6.10;0.93;;;22.50;97.10;;;;;;5128386;27;20047;-75
2021/12/06 04:41:48;;;;;;;11.55;1.80;;;22.50;96.80;;;;;;5130277;27;20031;-75
2021/12/06 04:44:15;;;;;;;10.02;1.10;;;22.40;96.90;;;;;;5111608;27;20477;-76
2021/12/06 04:46:43;;;;;;;1.90;0.70;;;22.40;96.60;;;;;;5128628;27;20134;-76
2021/12/06 04:49:11;;;;;;;4.25;1.15;;;22.40;96.70;;;;;;5126814;27;20031;-81
2021/12/06 04:51:41;;;;;;;3.53;0.65;;;22.40;96.40;;;;;;5128051;27;20486;-75
2021/12/06 04:54:08;;;;;;;4.55;0.75;;;22.50;96.80;;;;;;5131349;27;20092;-75
2021/12/06 04:56:41;;;;;;;5.15;0.95;;;22.70;97.00;;;;;;5129374;27;20027;-77
2021/12/06 04:59:14;;;;;;;4.10;0.70;;;22.60;96.60;;;;;;5130916;27;20056;-74
2021/12/06 05:01:43;;;;;;;3.22;0.93;;;22.50;97.00;;;;;;5125636;27;20035;-75
2021/12/06 05:04:18;;;;;;;0.82;0.40;;;22.50;96.90;;;;;;5127628;27;20041;-74
2021/12/06 05:06:51;;;;;;;3.03;0.95;;;22.40;97.00;;;;;;5128804;27;20019;-78
2021/12/06 05:09:23;;;;;;;3.17;0.45;;;22.40;97.10;;;;;;5131398;27;20027;-79
2021/12/06 05:11:51;;;;;;;3.47;0.82;;;22.40;97.30;;;;;;5112062;28;20034;-75
2021/12/06 05:14:19;;;;;;;3.35;0.75;;;22.20;97.60;;;;;;5127530;28;20026;-76
2021/12/06 05:16:47;;;;;;;0.90;0.55;;;22.10;97.50;;;;;;5126516;28;20095;-75
2021/12/06 05:19:14;;;;;;;6.25;0.50;;;21.90;98.20;;;;;;5128063;27;20019;-78
2021/12/06 05:21:41;;;;;;;4.88;0.60;;;21.80;98.70;;;;;;5133850;27;20034;-77
2021/12/06 05:24:09;;;;;;;3.42;0.73;;;21.70;99.00;;;;;;5134729;27;20019;-76
2021/12/06 05:26:37;;;;;;;7.90;0.80;;;21.80;99.10;;;;;;5134108;27;20112;-77
2021/12/06 05:29:07;;;;;;;4.00;0.88;;;21.70;99.50;;;;;;5129659;27;20030;-78
2021/12/06 05:31:39;;;;;;;2.55;0.85;;;21.70;99.90;;;;;;5123040;27;20023;-78
2021/12/06 05:34:14;;;;;;;3.15;0.50;;;21.50;99.80;;;;;;5123262;27;20092;-78
2021/12/06 05:36:42;;;;;;;11.10;0.77;;;21.40;99.90;;;;;;5131630;27;20027;-80
2021/12/06 05:39:10;;;;;;;3.22;0.50;;;21.30;99.90;;;;;;5134260;27;20184;-78
2021/12/06 05:41:38;;;;;;;4.32;1.20;;;21.40;99.90;;;;;;5131684;27;20038;-75
2021/12/06 05:44:06;;;;;;;4.00;0.88;;;21.50;99.80;;;;;;5131923;27;20076;-81
2021/12/06 05:46:34;;;;;;;5.63;1.13;;;21.60;99.90;;;;;;5128449;27;20457;-79
2021/12/06 05:49:01;;;;;;;6.80;1.15;;;21.60;99.00;;;;;;5135027;27;20015;-78
2021/12/06 05:51:28;;;;;;;5.03;0.50;;;21.60;99.00;;;;;;5132738;27;20750;-79
2021/12/06 05:53:59;;;;;;;5.88;0.98;;;21.60;98.80;;;;;;5123864;27;21748;-79
2021/12/06 05:56:26;;;;;;;4.57;0.70;;;21.60;98.90;;;;;;5133311;27;20102;-77
2021/12/06 05:58:54;;;;;;;4.97;0.70;;;21.50;98.80;;;;;;5114981;27;20031;-80
2021/12/06 06:01:28;;;;;;;3.72;1.05;;;21.60;99.00;;;;;;5133655;27;20035;-81
2021/12/06 06:04:01;;;;;;;2.00;1.30;;;21.50;98.40;;;;;;5132659;27;20043;-76
2021/12/06 06:06:33;;;;;;;4.60;1.25;;;21.50;99.00;;;;;;5129861;27;20522;-78
2021/12/06 06:09:01;;;;;;;6.05;1.65;;;21.50;98.90;;;;;;5133001;27;20027;-77
2021/12/06 06:11:29;;;;;;;5.05;0.50;;;21.50;99.10;;;;;;5132718;27;20031;-76
2021/12/06 06:13:56;;;;;;;5.13;1.17;;;21.50;99.20;;;;;;5134921;27;20458;-77
2021/12/06 06:16:26;;;;;;;3.22;1.13;;;21.40;99.20;;;;;;5132842;27;20114;-77
2021/12/06 06:18:53;;;;;;;8.02;0.95;;;21.30;99.80;;;;;;5133573;27;20027;-78
2021/12/06 06:21:20;;;;;;;4.47;0.88;;;21.20;99.90;;;;;;5114670;27;20039;-77
2021/12/06 06:23:48;;;;;;;8.18;0.90;;;21.20;99.90;;;;;;5132728;27;20027;-78
2021/12/06 06:26:15;;;;;;;7.82;1.67;;;21.20;99.90;;;;;;5134020;27;20031;-77
2021/12/06 06:28:43;;;;;;;7.68;1.15;;;21.10;99.90;;;;;;5132871;27;20114;-77
2021/12/06 06:31:10;;;;;;;2.28;0.50;;;21.00;99.90;;;;;;5133071;27;20023;-77
2021/12/06 06:33:38;;;;;;;2.58;0.52;;;20.90;99.90;;;;;;5130996;27;20027;-76
2021/12/06 06:36:05;;;;;;;4.68;0.60;;;21.00;99.90;;;;;;5123049;27;20039;-77
2021/12/06 06:38:33;;;;;;;4.95;1.17;;;21.00;99.90;;;;;;5122662;27;20997;-78
2021/12/06 06:41:01;;;;;;;5.00;1.25;;;20.90;99.90;;;;;;5132399;27;20052;-78
2021/12/06 06:43:28;;;;;;;5.22;0.93;;;20.80;99.90;;;;;;5126510;27;20027;-76
2021/12/06 06:45:56;;;;;;;12.27;3.38;;;20.80;99.90;;;;;;5126438;27;20030;-78
2021/12/06 06:48:23;;;;;;;11.38;3.55;;;20.80;99.90;;;;;;5133555;27;20035;-77
2021/12/06 06:50:50;;;;;;;5.78;1.45;;;20.90;99.90;;;;;;5128076;27;20019;-79
2021/12/06 06:53:18;;;;;;;6.50;1.10;;;20.90;99.90;;;;;;5133967;27;20029;-78
2021/12/06 06:55:45;;;;;;;3.20;0.90;;;20.90;99.90;;;;;;5130979;27;20019;-78
2021/12/06 06:58:12;;;;;;;6.20;0.93;;;20.90;99.90;;;;;;5132009;27;20031;-78
2021/12/06 07:00:40;;;;;;;9.18;1.05;;;20.90;99.90;;;;;;5133639;27;20039;-77
2021/12/06 07:03:09;;;;;;;5.30;1.33;;;20.90;99.90;;;;;;5116136;27;20134;-77
2021/12/06 07:05:38;;;;;;;3.15;1.00;;;20.90;99.90;;;;;;5124264;27;20027;-78
2021/12/06 07:08:05;;;;;;;2.13;0.77;;;20.90;99.90;;;;;;5134447;27;21031;-77
2021/12/06 07:10:33;;;;;;;5.28;1.38;;;20.80;99.90;;;;;;5129410;27;20026;-79
2021/12/06 07:13:04;;;;;;;11.15;1.65;;;20.80;99.90;;;;;;5134890;27;20470;-79
2021/12/06 07:15:34;;;;;;;5.15;1.48;;;20.80;99.90;;;;;;5131207;27;20158;-79
2021/12/06 07:18:02;;;;;;;6.35;0.75;;;20.80;99.90;;;;;;5133558;27;20023;-77
2021/12/06 07:20:32;;;;;;;7.68;1.08;;;20.70;99.90;;;;;;5132370;27;20038;-78
2021/12/06 07:23:03;;;;;;;4.40;1.38;;;20.80;99.90;;;;;;5135045;27;20355;-77
2021/12/06 07:25:34;;;;;;;4.85;1.45;;;20.80;99.90;;;;;;5124277;27;20027;-77
2021/12/06 07:28:04;;;;;;;2.75;0.90;;;20.80;99.90;;;;;;5127899;27;20026;-78
2021/12/06 07:30:31;;;;;;;6.90;0.60;;;20.90;99.90;;;;;;5132053;27;20027;-78
2021/12/06 07:33:00;;;;;;;6.65;1.30;;;20.90;99.90;;;;;;5128266;27;20030;-79
2021/12/06 07:35:29;;;;;;;4.45;1.30;;;20.90;99.90;;;;;;5126691;27;20038;-80
2021/12/06 07:37:58;;;;;;;3.50;1.45;;;20.90;99.90;;;;;;5126411;27;20164;-78
2021/12/06 07:40:25;;;;;;;2.97;0.93;;;20.90;99.90;;;;;;5120802;27;20032;-79
2021/12/06 07:42:53;;;;;;;4.10;1.35;;;20.90;99.90;;;;;;5131714;27;20034;-78
2021/12/06 07:45:20;;;;;;;7.75;2.05;;;20.90;99.90;;;;;;5129643;27;20110;-79
2021/12/06 07:47:48;;;;;;;7.72;1.85;;;20.90;99.90;;;;;;5133272;27;20023;-77
2021/12/06 07:50:18;;;;;;;5.60;1.17;;;20.90;99.90;;;;;;5124875;27;20026;-77
2021/12/06 07:52:46;;;;;;;7.72;1.73;;;20.90;99.90;;;;;;5125600;27;20027;-77
2021/12/06 07:55:15;;;;;;;6.20;1.25;;;21.00;99.90;;;;;;5126566;27;20027;-77
2021/12/06 07:57:44;;;;;;;3.13;0.98;;;20.90;99.90;;;;;;5124803;27;20488;-77
2021/12/06 08:00:16;;;;;;;1.33;0.70;;;20.90;99.90;;;;;;5129907;27;20526;-78
2021/12/06 08:02:44;;;;;;;3.55;0.98;;;20.90;99.90;;;;;;5132370;27;20038;-78
2021/12/06 08:05:30;;;;;;;2.65;0.88;;;20.90;99.90;;;;;;5130126;27;20108;-76
2021/12/06 08:08:19;;;;;;;5.10;1.20;;;20.80;99.90;;;;;;5131036;27;20034;-78
2021/12/06 08:10:49;;;;;;;4.65;1.73;;;20.80;99.90;;;;;;5123182;27;20039;-78
2021/12/06 08:13:20;;;;;;;5.03;1.17;;;20.80;99.90;;;;;;5132949;27;20048;-77
2021/12/06 08:15:50;;;;;;;4.43;0.77;;;20.80;99.90;;;;;;5132236;27;20489;-77
2021/12/06 08:18:18;;;;;;;4.20;1.08;;;20.80;99.90;;;;;;5132434;27;20023;-78
2021/12/06 08:20:46;;;;;;;4.13;0.95;;;20.70;99.90;;;;;;5127508;27;20034;-77
2021/12/06 08:23:14;;;;;;;5.00;1.25;;;20.70;99.90;;;;;;5127684;27;20034;-78
2021/12/06 08:25:43;;;;;;;4.00;1.40;;;20.70;99.90;;;;;;5129874;27;20043;-77
2021/12/06 08:28:10;;;;;;;2.30;0.70;;;20.60;99.90;;;;;;5131999;27;20023;-78
2021/12/06 08:30:38;;;;;;;4.28;1.55;;;20.60;99.90;;;;;;5128942;27;20107;-78
2021/12/06 08:33:06;;;;;;;8.27;2.88;;;20.60;99.90;;;;;;5130606;27;20049;-78
2021/12/06 08:35:40;;;;;;;7.40;1.70;;;20.60;99.90;;;;;;5122931;27;20016;-78
2021/12/06 08:38:09;;;;;;;2.83;0.95;;;20.60;99.90;;;;;;5128459;27;20450;-79
2021/12/06 08:40:37;;;;;;;3.28;1.20;;;20.60;99.90;;;;;;5126060;27;20103;-79
2021/12/06 08:43:05;;;;;;;5.00;1.15;;;20.50;99.90;;;;;;5117428;27;20028;-78
2021/12/06 08:45:34;;;;;;;5.40;0.95;;;20.50;99.80;;;;;;5127339;27;20050;-78
2021/12/06 08:48:02;;;;;;;3.17;1.35;;;20.50;99.90;;;;;;5132237;27;20027;-78
2021/12/06 08:50:31;;;;;;;1.52;0.82;;;20.40;99.90;;;;;;5125966;27;20073;-77
2021/12/06 08:52:59;;;;;;;2.88;0.70;;;20.40;99.90;;;;;;5131164;27;20031;-78
2021/12/06 08:55:27;;;;;;;4.43;1.63;;;20.40;99.90;;;;;;5127082;27;20023;-77
2021/12/06 08:57:55;;;;;;;3.35;0.98;;;20.40;99.90;;;;;;5129612;27;20157;-79
2021/12/06 09:00:28;;;;;;;5.72;1.02;;;20.40;99.90;;;;;;5128127;27;20027;-76
2021/12/06 09:02:56;;;;;;;3.85;1.27;;;20.40;99.90;;;;;;5114086;28;20133;-77
2021/12/06 09:05:28;;;;;;;5.57;1.90;;;20.40;99.90;;;;;;5118555;27;20493;-77
2021/12/06 09:07:56;;;;;;;9.63;1.55;;;20.30;99.90;;;;;;5132140;27;20083;-78
2021/12/06 09:10:23;;;;;;;4.68;1.00;;;20.30;99.90;;;;;;5111962;27;20030;-77
2021/12/06 09:12:51;;;;;;;3.67;1.10;;;20.30;99.90;;;;;;5130607;27;20080;-78
2021/12/06 09:15:21;;;;;;;2.20;0.73;;;20.30;99.90;;;;;;5129346;27;20049;-77
2021/12/06 09:17:50;;;;;;;1.52;0.60;;;20.30;99.90;;;;;;5130954;28;20026;-77
2021/12/06 09:20:20;;;;;;;4.50;0.70;;;20.30;99.90;;;;;;5119443;28;20023;-77
2021/12/06 09:22:48;;;;;;;2.65;0.40;;;20.20;99.90;;;;;;5121449;28;20492;-79
2021/12/06 09:25:16;;;;;;;1.67;0.50;;;20.20;99.90;;;;;;5125842;28;20478;-78
2021/12/06 09:27:45;;;;;;;3.65;0.70;;;20.20;99.90;;;;;;5121148;28;20114;-79
2021/12/06 09:30:17;;;;;;;3.65;0.80;;;20.10;99.90;;;;;;5131514;28;20019;-77
2021/12/06 09:32:45;;;;;;;1.13;0.70;;;20.10;99.90;;;;;;5126133;28;20023;-77
2021/12/06 09:35:19;;;;;;;3.42;0.70;;;20.10;99.90;;;;;;5125355;28;20019;-79
2021/12/06 09:37:47;;;;;;;5.27;0.60;;;20.00;99.90;;;;;;5126670;28;20049;-78
2021/12/06 09:40:15;;;;;;;3.70;0.57;;;20.00;99.90;;;;;;5122662;28;20384;-79
2021/12/06 09:42:45;;;;;;;2.58;0.93;;;20.00;99.90;;;;;;5126710;28;20501;-78
2021/12/06 09:45:20;;;;;;;7.60;1.02;;;20.00;99.90;;;;;;5118396;28;20027;-78
2021/12/06 09:47:52;;;;;;;2.90;0.75;;;20.00;99.90;;;;;;5128706;28;20030;-77
2021/12/06 09:50:29;;;;;;;2.60;0.32;;;19.90;99.90;;;;;;5122603;28;20023;-78
2021/12/06 09:53:00;;;;;;;4.22;0.80;;;19.90;99.90;;;;;;5115773;28;20501;-77
2021/12/06 09:55:29;;;;;;;2.38;0.65;;;19.90;99.90;;;;;;5126532;28;20076;-78
2021/12/06 09:57:57;;;;;;;2.58;0.52;;;20.00;99.90;;;;;;5114860;28;20135;-78
2021/12/06 10:00:30;;;;;;;4.47;0.55;;;20.10;99.90;;;;;;5103601;28;20088;-78
2021/12/06 10:02:57;;;;;;;5.00;0.60;;;20.00;99.90;;;;;;5122721;27;20095;-78
2021/12/06 10:05:29;;;;;;;5.32;0.63;;;20.00;99.90;;;;;;5121329;28;20096;-77
2021/12/06 10:08:00;;;;;;;3.75;0.77;;;20.00;99.90;;;;;;5125959;27;20099;-77
2021/12/06 10:10:30;;;;;;;5.18;0.85;;;20.00;99.90;;;;;;5127827;27;20031;-78
2021/12/06 10:12:58;;;;;;;2.13;0.40;;;20.00;99.90;;;;;;5134001;27;20104;-77
2021/12/06 10:15:28;;;;;;;3.25;0.40;;;19.90;99.90;;;;;;5130190;27;20048;-77
2021/12/06 10:17:57;;;;;;;2.42;0.43;;;19.90;99.90;;;;;;5131343;27;20080;-77
2021/12/06 10:20:27;;;;;;;4.00;0.57;;;19.90;99.90;;;;;;5132292;27;20060;-77
2021/12/06 10:22:55;;;;;;;4.03;1.30;;;19.90;99.90;;;;;;5131705;27;20076;-77
2021/12/06 10:25:32;;;;;;;6.22;1.65;;;19.90;99.90;;;;;;5130377;27;20080;-76
2021/12/06 10:28:03;;;;;;;5.20;1.33;;;19.80;99.90;;;;;;5129694;27;20031;-79
2021/12/06 10:30:37;;;;;;;3.70;1.13;;;19.80;99.90;;;;;;5121303;27;20025;-77
2021/12/06 10:33:08;;;;;;;4.07;1.05;;;19.80;99.90;;;;;;5121102;27;20019;-78
2021/12/06 10:35:40;;;;;;;2.63;0.50;;;19.80;99.90;;;;;;5126695;27;20557;-78
2021/12/06 10:38:09;;;;;;;4.45;0.60;;;19.70;99.90;;;;;;5126311;27;20124;-78
2021/12/06 10:40:39;;;;;;;2.30;0.85;;;19.70;99.90;;;;;;5127980;27;20026;-78
2021/12/06 10:43:10;;;;;;;3.25;0.70;;;19.70;99.90;;;;;;5130996;27;20034;-77
2021/12/06 10:45:50;;;;;;;4.65;1.33;;;19.70;99.90;;;;;;5126883;27;20057;-77
2021/12/06 10:48:26;;;;;;;1.70;0.50;;;19.60;99.90;;;;;;5129910;27;20015;-77
2021/12/06 10:50:53;;;;;;;2.13;0.40;;;19.60;99.90;;;;;;5124776;27;20034;-78
2021/12/06 10:53:28;;;;;;;2.78;0.38;;;19.50;99.90;;;;;;5132832;27;20439;-78
2021/12/06 10:55:58;;;;;;;2.13;0.40;;;19.50;99.90;;;;;;5122343;27;20031;-78
2021/12/06 10:58:28;;;;;;;4.80;0.50;;;19.40;99.90;;;;;;5133497;27;20035;-76
2021/12/06 11:01:05;;;;;;;5.05;0.60;;;19.40;99.90;;;;;;5128298;27;20113;-77
2021/12/06 11:03:45;;;;;;;1.40;0.50;;;19.40;99.90;;;;;;5125719;27;20063;-77
2021/12/06 11:06:26;;;;;;;2.08;0.47;;;19.30;99.90;;;;;;5120146;27;20379;-77
2021/12/06 11:08:56;;;;;;;2.20;0.70;;;19.30;99.90;;;;;;5119915;27;20023;-76
2021/12/06 11:11:34;;;;;;;1.55;0.70;;;19.20;99.90;;;;;;5125921;27;20068;-78
2021/12/06 11:14:08;;;;;;;5.40;0.90;;;19.20;99.90;;;;;;5121340;27;20027;-78
2021/12/06 11:16:44;;;;;;;6.43;1.05;;;19.20;99.90;;;;;;5128187;27;20027;-78
2021/12/06 11:19:16;;;;;;;1.00;0.40;;;19.10;99.90;;;;;;5117190;27;20023;-78
2021/12/06 11:21:51;;;;;;;1.67;0.47;;;19.10;99.90;;;;;;5128666;27;20088;-78
2021/12/06 11:24:29;;;;;;;1.85;0.57;;;19.10;99.90;;;;;;5125792;27;20027;-78
2021/12/06 11:27:13;;;;;;;2.85;0.50;;;19.20;99.90;;;;;;5124924;27;20115;-77
2021/12/06 11:29:47;;;;;;;2.33;0.50;;;19.10;99.90;;;;;;5127145;27;20034;-77
2021/12/06 11:32:18;;;;;;;2.70;0.82;;;19.10;99.90;;;;;;5121184;27;20031;-77
2021/12/06 11:34:56;;;;;;;2.53;0.52;;;19.10;99.90;;;;;;5119020;27;20909;-78
2021/12/06 11:37:37;;;;;;;1.83;0.95;;;19.10;99.90;;;;;;5119827;27;20051;-76
2021/12/06 11:40:22;;;;;;;3.03;0.70;;;19.10;99.90;;;;;;5118938;27;20031;-78
2021/12/06 11:43:03;;;;;;;5.15;1.00;;;19.00;99.90;;;;;;5095110;27;20043;-78
2021/12/06 11:45:52;;;;;;;7.38;1.00;;;19.10;99.90;;;;;;5125256;27;20363;-77
2021/12/06 11:48:26;;;;;;;4.40;0.60;;;19.10;99.90;;;;;;5121223;27;20038;-76
2021/12/06 11:51:13;;;;;;;4.50;1.08;;;19.10;99.90;;;;;;5109794;27;20112;-77
2021/12/06 11:53:56;;;;;;;4.57;0.65;;;19.10;99.90;;;;;;5117364;27;20351;-77
2021/12/06 11:56:31;;;;;;;2.88;1.13;;;19.00;99.90;;;;;;5115415;27;20114;-79
2021/12/06 11:59:06;;;;;;;7.95;1.02;;;19.00;99.90;;;;;;5123377;27;20110;-76
2021/12/06 12:01:40;;;;;;;2.38;1.25;;;19.10;99.90;;;;;;5120965;27;20042;-75
2021/12/06 12:04:21;;;;;;;6.25;1.80;;;19.00;99.90;;;;;;5121520;27;20051;-75
2021/12/06 12:07:03;;;;;;;3.30;1.30;;;19.00;99.90;;;;;;5120559;27;20055;-75
2021/12/06 12:09:35;;;;;;;4.68;1.58;;;19.00;99.90;;;;;;5124067;27;20031;-77
2021/12/06 12:12:10;;;;;;;4.38;1.98;;;19.00;99.90;;;;;;5110626;27;20358;-77
2021/12/06 12:14:55;;;;;;;4.57;1.23;;;18.90;99.90;;;;;;5134573;27;20019;-79
2021/12/06 12:17:31;;;;;;;4.55;0.93;;;18.90;99.90;;;;;;5129702;27;20096;-77
2021/12/06 12:20:00;;;;;;;4.60;1.10;;;18.90;99.90;;;;;;5125540;27;20020;-77
2021/12/06 12:22:29;;;;;;;8.30;1.77;;;18.90;99.90;;;;;;5118848;27;20039;-76
2021/12/06 12:25:05;;;;;;;8.10;1.10;;;18.90;99.90;;;;;;5114672;27;20034;-77
2021/12/06 12:30:07;;;;;;;5.05;1.75;;;19.00;99.90;;;;;;5116134;27;20052;-78
2021/12/06 12:32:35;;;;;;;5.07;1.80;;;19.00;99.90;;;;;;5131199;27;20110;-77
2021/12/06 12:35:12;;;;;;;3.38;1.10;;;19.00;99.90;;;;;;5117395;27;20047;-79
2021/12/06 12:37:41;;;;;;;5.20;1.17;;;19.10;99.90;;;;;;5117679;27;20520;-78
2021/12/06 12:40:13;;;;;;;7.50;2.22;;;19.10;99.90;;;;;;5122589;27;20031;-78
2021/12/06 12:43:13;;;;;;;3.40;1.83;;;19.00;99.90;;;;;;5121096;27;20063;-79
2021/12/06 12:45:51;;;;;;;3.03;1.75;;;19.00;99.90;;;;;;5123664;27;20027;-78
2021/12/06 12:48:23;;;;;;;2.70;1.15;;;19.00;99.90;;;;;;5127321;27;20031;-76
2021/12/06 12:51:12;;;;;;;5.30;1.38;;;19.00;99.90;;;;;;5125964;27;20068;-78
2021/12/06 12:54:02;;;;;;;3.30;1.05;;;19.10;99.90;;;;;;5119449;27;20019;-78
2021/12/06 12:56:41;;;;;;;3.85;1.20;;;19.10;99.90;;;;;;5123368;27;20106;-79
2021/12/06 13:00:01;;;;;;;5.57;0.93;;;19.00;99.90;;;;;;5118935;27;20024;-79
2021/12/06 13:02:38;;;;;;;5.95;1.17;;;19.00;99.90;;;;;;5100260;27;20390;-77
2021/12/06 13:05:10;;;;;;;3.17;1.30;;;19.00;99.90;;;;;;5123997;27;20031;-79
2021/12/06 13:07:41;;;;;;;3.78;1.70;;;18.90;99.90;;;;;;5115588;27;20027;-78
2021/12/06 13:10:24;;;;;;;5.82;1.50;;;18.90;99.90;;;;;;5121623;27;20023;-78
2021/12/06 13:13:03;;;;;;;3.83;1.30;;;18.90;99.90;;;;;;5119358;27;20023;-81
2021/12/06 13:15:49;;;;;;;6.93;1.60;;;18.90;99.90;;;;;;5126954;27;20027;-78
2021/12/06 13:18:55;;;;;;;6.68;1.38;;;18.90;99.90;;;;;;5119570;28;20377;-79